<?xml version='1.0' encoding='UTF-8'?><gpx version="1.1" creator="JPX - https://github.com/jenetics/jpx" xmlns="http://www.topografix.com/GPX/1/1"><trk><trkseg><trkpt lat="43.364035" lon="10.8220151"><ele>115.99999999999999</ele><time>2026-04-18T08:31:53.578Z</time></trkpt><trkpt lat="43.3640493" lon="10.8221502"><ele>116.0</ele><time>2026-04-18T08:31:59.579Z</time></trkpt><trkpt lat="43.3640674" lon="10.8222521"><ele>116.0</ele><time>2026-04-18T08:32:02.544Z</time></trkpt><trkpt lat="43.3641292" lon="10.8222995"><ele>116.0</ele><time>2026-04-18T08:32:06.539Z</time></trkpt><trkpt lat="43.3641989" lon="10.8223294"><ele>115.99999999999999</ele><time>2026-04-18T08:32:10.479Z</time></trkpt><trkpt lat="43.364261" lon="10.8223498"><ele>116.0</ele><time>2026-04-18T08:32:14.513Z</time></trkpt><trkpt lat="43.3643163" lon="10.8224072"><ele>116.00000000000001</ele><time>2026-04-18T08:32:20.553Z</time></trkpt><trkpt lat="43.3642544" lon="10.8224337"><ele>116.0</ele><time>2026-04-18T08:32:24.478Z</time></trkpt><trkpt lat="43.3641986" lon="10.8223815"><ele>116.00000000000001</ele><time>2026-04-18T08:32:28.496Z</time></trkpt><trkpt lat="43.3641423" lon="10.822326"><ele>116.00000000000001</ele><time>2026-04-18T08:32:32.522Z</time></trkpt><trkpt lat="43.3640875" lon="10.822276"><ele>116.0</ele><time>2026-04-18T08:32:36.537Z</time></trkpt><trkpt lat="43.3640306" lon="10.8222044"><ele>116.00000000000001</ele><time>2026-04-18T08:32:42.197Z</time></trkpt><trkpt lat="43.3639783" lon="10.8221418"><ele>116.00000000000001</ele><time>2026-04-18T08:32:46.578Z</time></trkpt><trkpt lat="43.3639213" lon="10.8220906"><ele>116.00000000000001</ele><time>2026-04-18T08:32:52.579Z</time></trkpt><trkpt lat="43.363864" lon="10.8220544"><ele>116.0</ele><time>2026-04-18T08:32:57.559Z</time></trkpt><trkpt lat="43.3638001" lon="10.8220364"><ele>116.00000000000001</ele><time>2026-04-18T08:33:01.558Z</time></trkpt><trkpt lat="43.363734" lon="10.822044"><ele>116.00000000000001</ele><time>2026-04-18T08:33:05.356Z</time></trkpt><trkpt lat="43.3636624" lon="10.8220466"><ele>116.0</ele><time>2026-04-18T08:33:11.217Z</time></trkpt><trkpt lat="43.3635928" lon="10.8220521"><ele>116.00000000000001</ele><time>2026-04-18T08:33:19.059Z</time></trkpt><trkpt lat="43.3635254" lon="10.8220171"><ele>116.00000000000001</ele><time>2026-04-18T08:33:23.795Z</time></trkpt><trkpt lat="43.3634596" lon="10.8219669"><ele>115.42857142857144</ele><time>2026-04-18T08:33:28.557Z</time></trkpt><trkpt lat="43.3633951" lon="10.8219394"><ele>114.85714285714286</ele><time>2026-04-18T08:33:32.588Z</time></trkpt><trkpt lat="43.3633412" lon="10.8218942"><ele>114.28571428571429</ele><time>2026-04-18T08:33:37.528Z</time></trkpt><trkpt lat="43.363267" lon="10.8218498"><ele>113.71428571428572</ele><time>2026-04-18T08:33:44.179Z</time></trkpt><trkpt lat="43.3632056" lon="10.8217793"><ele>113.14285714285714</ele><time>2026-04-18T08:33:49.526Z</time></trkpt><trkpt lat="43.3631576" lon="10.8217163"><ele>112.57142857142857</ele><time>2026-04-18T08:33:55.115Z</time></trkpt><trkpt lat="43.3630928" lon="10.821679"><ele>112.0</ele><time>2026-04-18T08:34:01.577Z</time></trkpt><trkpt lat="43.3630465" lon="10.8216072"><ele>110.28571428571429</ele><time>2026-04-18T08:34:07.507Z</time></trkpt><trkpt lat="43.3629848" lon="10.8215608"><ele>108.57142857142857</ele><time>2026-04-18T08:34:11.57Z</time></trkpt><trkpt lat="43.3629282" lon="10.8214981"><ele>106.85714285714286</ele><time>2026-04-18T08:34:16.51Z</time></trkpt><trkpt lat="43.3628832" lon="10.8214373"><ele>105.14285714285714</ele><time>2026-04-18T08:34:21.562Z</time></trkpt><trkpt lat="43.3628169" lon="10.8213957"><ele>103.42857142857143</ele><time>2026-04-18T08:34:26.595Z</time></trkpt><trkpt lat="43.3627541" lon="10.8213567"><ele>101.71428571428572</ele><time>2026-04-18T08:34:30.139Z</time></trkpt><trkpt lat="43.3626908" lon="10.8213324"><ele>100.0</ele><time>2026-04-18T08:34:34.296Z</time></trkpt><trkpt lat="43.3626217" lon="10.8213138"><ele>100.00000000000001</ele><time>2026-04-18T08:34:39.996Z</time></trkpt><trkpt lat="43.3625453" lon="10.8213031"><ele>100.0</ele><time>2026-04-18T08:34:45.636Z</time></trkpt><trkpt lat="43.3624822" lon="10.8212913"><ele>100.0</ele><time>2026-04-18T08:34:49.479Z</time></trkpt><trkpt lat="43.3624115" lon="10.8212809"><ele>100.0</ele><time>2026-04-18T08:34:54.376Z</time></trkpt><trkpt lat="43.3623397" lon="10.8212823"><ele>100.0</ele><time>2026-04-18T08:35:00.136Z</time></trkpt><trkpt lat="43.3622784" lon="10.8212582"><ele>100.00000000000001</ele><time>2026-04-18T08:35:04.957Z</time></trkpt><trkpt lat="43.3621995" lon="10.8212599"><ele>100.0</ele><time>2026-04-18T08:35:10.637Z</time></trkpt><trkpt lat="43.3622101" lon="10.8213486"><ele>100.00000000000001</ele><time>2026-04-18T08:35:16.575Z</time></trkpt><trkpt lat="43.3622777" lon="10.8213453"><ele>100.0</ele><time>2026-04-18T08:35:22.504Z</time></trkpt><trkpt lat="43.3623456" lon="10.8213542"><ele>100.0</ele><time>2026-04-18T08:35:28.544Z</time></trkpt><trkpt lat="43.3624075" lon="10.8213718"><ele>100.0</ele><time>2026-04-18T08:35:32.497Z</time></trkpt><trkpt lat="43.3624676" lon="10.8214153"><ele>100.0</ele><time>2026-04-18T08:35:37.548Z</time></trkpt><trkpt lat="43.3625246" lon="10.8214815"><ele>100.00000000000001</ele><time>2026-04-18T08:35:44.575Z</time></trkpt><trkpt lat="43.3625809" lon="10.8215499"><ele>100.0</ele><time>2026-04-18T08:35:49.517Z</time></trkpt><trkpt lat="43.3626402" lon="10.8215956"><ele>100.00000000000001</ele><time>2026-04-18T08:35:55.556Z</time></trkpt><trkpt lat="43.3626921" lon="10.8216485"><ele>100.0</ele><time>2026-04-18T08:36:01.49Z</time></trkpt><trkpt lat="43.3626922" lon="10.8217517"><ele>100.0</ele><time>2026-04-18T08:36:07.555Z</time></trkpt><trkpt lat="43.3627111" lon="10.8218368"><ele>100.0</ele><time>2026-04-18T08:36:11.49Z</time></trkpt><trkpt lat="43.3627627" lon="10.8219007"><ele>100.0</ele><time>2026-04-18T08:36:15.537Z</time></trkpt><trkpt lat="43.3628254" lon="10.8219517"><ele>100.00000000000001</ele><time>2026-04-18T08:36:19.496Z</time></trkpt><trkpt lat="43.3628431" lon="10.8220397"><ele>100.0</ele><time>2026-04-18T08:36:24.544Z</time></trkpt><trkpt lat="43.3628055" lon="10.8221155"><ele>98.57142857142858</ele><time>2026-04-18T08:36:29.49Z</time></trkpt><trkpt lat="43.3627771" lon="10.8222095"><ele>97.14285714285714</ele><time>2026-04-18T08:36:34.536Z</time></trkpt><trkpt lat="43.362761" lon="10.822314"><ele>95.71428571428572</ele><time>2026-04-18T08:36:39.558Z</time></trkpt><trkpt lat="43.3627501" lon="10.8223995"><ele>94.28571428571429</ele><time>2026-04-18T08:36:44.529Z</time></trkpt><trkpt lat="43.3628109" lon="10.8224434"><ele>92.85714285714286</ele><time>2026-04-18T08:36:48.578Z</time></trkpt><trkpt lat="43.3628828" lon="10.8224559"><ele>91.42857142857143</ele><time>2026-04-18T08:36:55.456Z</time></trkpt><trkpt lat="43.3629497" lon="10.8224383"><ele>90.0</ele><time>2026-04-18T08:37:01.547Z</time></trkpt><trkpt lat="43.3630125" lon="10.8223979"><ele>91.85714285714285</ele><time>2026-04-18T08:37:07.588Z</time></trkpt><trkpt lat="43.3630736" lon="10.8223693"><ele>93.71428571428572</ele><time>2026-04-18T08:37:15.535Z</time></trkpt><trkpt lat="43.3631433" lon="10.8223666"><ele>95.57142857142857</ele><time>2026-04-18T08:37:23.527Z</time></trkpt><trkpt lat="43.3632097" lon="10.822373"><ele>97.42857142857142</ele><time>2026-04-18T08:37:30.559Z</time></trkpt><trkpt lat="43.3632612" lon="10.8224242"><ele>99.28571428571428</ele><time>2026-04-18T08:37:38.553Z</time></trkpt><trkpt lat="43.3633248" lon="10.8224748"><ele>101.14285714285714</ele><time>2026-04-18T08:37:45.597Z</time></trkpt><trkpt lat="43.3633894" lon="10.8225201"><ele>103.0</ele><time>2026-04-18T08:37:51.509Z</time></trkpt><trkpt lat="43.3634503" lon="10.8225618"><ele>102.99999999999999</ele><time>2026-04-18T08:37:56.56Z</time></trkpt><trkpt lat="43.3635198" lon="10.8225647"><ele>103.0</ele><time>2026-04-18T08:38:03.588Z</time></trkpt><trkpt lat="43.3635829" lon="10.8225422"><ele>103.0</ele><time>2026-04-18T08:38:10.506Z</time></trkpt><trkpt lat="43.3636411" lon="10.8225008"><ele>103.0</ele><time>2026-04-18T08:38:20.498Z</time></trkpt><trkpt lat="43.3636923" lon="10.8224293"><ele>103.0</ele><time>2026-04-18T08:38:26.537Z</time></trkpt><trkpt lat="43.3637462" lon="10.8223821"><ele>102.99999999999999</ele><time>2026-04-18T08:38:33.564Z</time></trkpt><trkpt lat="43.3638111" lon="10.8223375"><ele>103.0</ele><time>2026-04-18T08:38:40.49Z</time></trkpt><trkpt lat="43.363879" lon="10.8223435"><ele>103.28571428571428</ele><time>2026-04-18T08:38:48.498Z</time></trkpt><trkpt lat="43.3639456" lon="10.8223662"><ele>103.57142857142857</ele><time>2026-04-18T08:38:56.513Z</time></trkpt><trkpt lat="43.3640095" lon="10.8223988"><ele>103.85714285714286</ele><time>2026-04-18T08:39:00.498Z</time></trkpt><trkpt lat="43.364065" lon="10.8224426"><ele>104.14285714285714</ele><time>2026-04-18T08:39:04.529Z</time></trkpt><trkpt lat="43.3641217" lon="10.8225022"><ele>104.42857142857143</ele><time>2026-04-18T08:39:09.58Z</time></trkpt><trkpt lat="43.3641792" lon="10.8225623"><ele>104.71428571428571</ele><time>2026-04-18T08:39:14.578Z</time></trkpt><trkpt lat="43.3642316" lon="10.8226298"><ele>105.0</ele><time>2026-04-18T08:39:19.439Z</time></trkpt><trkpt lat="43.3642827" lon="10.8227033"><ele>105.0</ele><time>2026-04-18T08:39:25.299Z</time></trkpt><trkpt lat="43.3643385" lon="10.8227581"><ele>105.0</ele><time>2026-04-18T08:39:30.998Z</time></trkpt><trkpt lat="43.3643803" lon="10.8228391"><ele>105.0</ele><time>2026-04-18T08:39:36.818Z</time></trkpt><trkpt lat="43.3644247" lon="10.8229102"><ele>105.0</ele><time>2026-04-18T08:39:41.174Z</time></trkpt><trkpt lat="43.3644606" lon="10.8229862"><ele>105.0</ele><time>2026-04-18T08:39:45.437Z</time></trkpt><trkpt lat="43.3644679" lon="10.823078"><ele>105.0</ele><time>2026-04-18T08:39:50.478Z</time></trkpt><trkpt lat="43.3644805" lon="10.8231813"><ele>105.0</ele><time>2026-04-18T08:39:58.579Z</time></trkpt><trkpt lat="43.3644901" lon="10.8232769"><ele>105.0</ele><time>2026-04-18T08:40:02.477Z</time></trkpt><trkpt lat="43.3645009" lon="10.8233635"><ele>105.0</ele><time>2026-04-18T08:40:06.568Z</time></trkpt><trkpt lat="43.3644921" lon="10.8234567"><ele>105.0</ele><time>2026-04-18T08:40:12.498Z</time></trkpt><trkpt lat="43.3645061" lon="10.8235472"><ele>105.0</ele><time>2026-04-18T08:40:18.537Z</time></trkpt><trkpt lat="43.3645241" lon="10.8236365"><ele>105.0</ele><time>2026-04-18T08:40:22.489Z</time></trkpt><trkpt lat="43.3645447" lon="10.8237302"><ele>105.0</ele><time>2026-04-18T08:40:26.553Z</time></trkpt><trkpt lat="43.364573" lon="10.8238123"><ele>105.0</ele><time>2026-04-18T08:40:31.494Z</time></trkpt><trkpt lat="43.3646111" lon="10.8238936"><ele>104.28571428571429</ele><time>2026-04-18T08:40:37.533Z</time></trkpt><trkpt lat="43.3646548" lon="10.8239733"><ele>103.57142857142857</ele><time>2026-04-18T08:40:42.583Z</time></trkpt><trkpt lat="43.364709" lon="10.8240463"><ele>102.85714285714286</ele><time>2026-04-18T08:40:48.512Z</time></trkpt><trkpt lat="43.3647627" lon="10.8241077"><ele>102.14285714285714</ele><time>2026-04-18T08:40:54.553Z</time></trkpt><trkpt lat="43.3648149" lon="10.8241806"><ele>101.42857142857143</ele><time>2026-04-18T08:40:59.555Z</time></trkpt><trkpt lat="43.3648575" lon="10.8242553"><ele>100.71428571428572</ele><time>2026-04-18T08:41:03.556Z</time></trkpt><trkpt lat="43.3648983" lon="10.8243354"><ele>100.0</ele><time>2026-04-18T08:41:10.584Z</time></trkpt><trkpt lat="43.3649526" lon="10.8244077"><ele>101.57142857142858</ele><time>2026-04-18T08:41:16.513Z</time></trkpt><trkpt lat="43.3650123" lon="10.8244575"><ele>103.14285714285714</ele><time>2026-04-18T08:41:22.314Z</time></trkpt><trkpt lat="43.3650502" lon="10.8245371"><ele>104.71428571428572</ele><time>2026-04-18T08:41:27.416Z</time></trkpt><trkpt lat="43.3650501" lon="10.8246343"><ele>106.28571428571429</ele><time>2026-04-18T08:41:32.357Z</time></trkpt><trkpt lat="43.3650354" lon="10.824722"><ele>107.85714285714286</ele><time>2026-04-18T08:41:37.178Z</time></trkpt><trkpt lat="43.3650038" lon="10.8248141"><ele>109.42857142857143</ele><time>2026-04-18T08:41:43.525Z</time></trkpt><trkpt lat="43.3649938" lon="10.8249055"><ele>111.0</ele><time>2026-04-18T08:41:49.564Z</time></trkpt><trkpt lat="43.3649931" lon="10.8250017"><ele>111.0</ele><time>2026-04-18T08:41:55.555Z</time></trkpt><trkpt lat="43.3650128" lon="10.8250954"><ele>111.0</ele><time>2026-04-18T08:42:00.544Z</time></trkpt><trkpt lat="43.36503" lon="10.8251919"><ele>111.0</ele><time>2026-04-18T08:42:05.49Z</time></trkpt><trkpt lat="43.3650598" lon="10.8252706"><ele>111.0</ele><time>2026-04-18T08:42:10.537Z</time></trkpt><trkpt lat="43.3650761" lon="10.8253561"><ele>111.0</ele><time>2026-04-18T08:42:16.576Z</time></trkpt><trkpt lat="43.3651411" lon="10.8253885"><ele>111.0</ele><time>2026-04-18T08:42:24.591Z</time></trkpt><trkpt lat="43.3652084" lon="10.8253544"><ele>111.0</ele><time>2026-04-18T08:42:30.52Z</time></trkpt><trkpt lat="43.3652499" lon="10.8252759"><ele>111.0</ele><time>2026-04-18T08:42:38.418Z</time></trkpt><trkpt lat="43.3652661" lon="10.8251905"><ele>111.0</ele><time>2026-04-18T08:42:43.38Z</time></trkpt><trkpt lat="43.3652795" lon="10.8251013"><ele>111.0</ele><time>2026-04-18T08:42:48.395Z</time></trkpt><trkpt lat="43.3652928" lon="10.8250037"><ele>111.0</ele><time>2026-04-18T08:42:54.567Z</time></trkpt><trkpt lat="43.3653099" lon="10.8249014"><ele>111.0</ele><time>2026-04-18T08:43:00.319Z</time></trkpt><trkpt lat="43.3653115" lon="10.8248142"><ele>111.0</ele><time>2026-04-18T08:43:05.415Z</time></trkpt><trkpt lat="43.3653205" lon="10.8247142"><ele>111.0</ele><time>2026-04-18T08:43:12.575Z</time></trkpt><trkpt lat="43.365337" lon="10.8246295"><ele>111.0</ele><time>2026-04-18T08:43:20.49Z</time></trkpt><trkpt lat="43.3653317" lon="10.8245224"><ele>111.0</ele><time>2026-04-18T08:43:26.521Z</time></trkpt><trkpt lat="43.3653104" lon="10.8244354"><ele>111.0</ele><time>2026-04-18T08:43:30.49Z</time></trkpt><trkpt lat="43.3653015" lon="10.8243474"><ele>111.0</ele><time>2026-04-18T08:43:34.536Z</time></trkpt><trkpt lat="43.3652752" lon="10.8242678"><ele>111.0</ele><time>2026-04-18T08:43:39.587Z</time></trkpt><trkpt lat="43.3652421" lon="10.8241745"><ele>111.0</ele><time>2026-04-18T08:43:45.517Z</time></trkpt><trkpt lat="43.3651809" lon="10.8241102"><ele>111.0</ele><time>2026-04-18T08:43:50.567Z</time></trkpt><trkpt lat="43.3651353" lon="10.8240344"><ele>111.28571428571428</ele><time>2026-04-18T08:43:55.509Z</time></trkpt><trkpt lat="43.3650916" lon="10.8239609"><ele>111.57142857142858</ele><time>2026-04-18T08:44:00.257Z</time></trkpt><trkpt lat="43.3650442" lon="10.8239017"><ele>111.85714285714286</ele><time>2026-04-18T08:44:04.499Z</time></trkpt><trkpt lat="43.3649903" lon="10.8238488"><ele>112.14285714285714</ele><time>2026-04-18T08:44:10.552Z</time></trkpt><trkpt lat="43.3649363" lon="10.8237918"><ele>112.42857142857142</ele><time>2026-04-18T08:44:16.497Z</time></trkpt><trkpt lat="43.364883" lon="10.8237242"><ele>112.71428571428572</ele><time>2026-04-18T08:44:21.532Z</time></trkpt><trkpt lat="43.3648239" lon="10.8236802"><ele>113.0</ele><time>2026-04-18T08:44:25.49Z</time></trkpt><trkpt lat="43.3647824" lon="10.823596"><ele>113.0</ele><time>2026-04-18T08:44:30.398Z</time></trkpt><trkpt lat="43.3647238" lon="10.8235391"><ele>113.0</ele><time>2026-04-18T08:44:36.525Z</time></trkpt><trkpt lat="43.3646792" lon="10.8234676"><ele>113.0</ele><time>2026-04-18T08:44:41.516Z</time></trkpt><trkpt lat="43.3646626" lon="10.8233762"><ele>113.0</ele><time>2026-04-18T08:44:45.579Z</time></trkpt><trkpt lat="43.3646614" lon="10.8232886"><ele>113.0</ele><time>2026-04-18T08:44:50.556Z</time></trkpt><trkpt lat="43.3646665" lon="10.8231944"><ele>113.0</ele><time>2026-04-18T08:44:55.546Z</time></trkpt><trkpt lat="43.3646927" lon="10.8231016"><ele>113.0</ele><time>2026-04-18T08:44:59.524Z</time></trkpt><trkpt lat="43.3647438" lon="10.823029"><ele>113.85714285714286</ele><time>2026-04-18T08:45:04.575Z</time></trkpt><trkpt lat="43.3648121" lon="10.823024"><ele>114.71428571428571</ele><time>2026-04-18T08:45:10.504Z</time></trkpt><trkpt lat="43.3648839" lon="10.8230474"><ele>115.57142857142857</ele><time>2026-04-18T08:45:17.531Z</time></trkpt><trkpt lat="43.3649407" lon="10.8231001"><ele>116.42857142857143</ele><time>2026-04-18T08:45:21.459Z</time></trkpt><trkpt lat="43.3649838" lon="10.8231656"><ele>117.28571428571428</ele><time>2026-04-18T08:45:25.547Z</time></trkpt><trkpt lat="43.3650145" lon="10.8232498"><ele>118.14285714285714</ele><time>2026-04-18T08:45:29.496Z</time></trkpt><trkpt lat="43.3650517" lon="10.8233244"><ele>119.0</ele><time>2026-04-18T08:45:35.436Z</time></trkpt><trkpt lat="43.3650743" lon="10.8234154"><ele>118.14285714285714</ele><time>2026-04-18T08:45:42.598Z</time></trkpt><trkpt lat="43.365103" lon="10.82351"><ele>117.28571428571428</ele><time>2026-04-18T08:45:48.494Z</time></trkpt><trkpt lat="43.3651278" lon="10.8235994"><ele>116.42857142857143</ele><time>2026-04-18T08:45:52.475Z</time></trkpt><trkpt lat="43.3651516" lon="10.8236912"><ele>115.57142857142857</ele><time>2026-04-18T08:45:57.216Z</time></trkpt><trkpt lat="43.3651958" lon="10.8237586"><ele>114.71428571428571</ele><time>2026-04-18T08:46:02.457Z</time></trkpt><trkpt lat="43.3651998" lon="10.8238461"><ele>113.85714285714286</ele><time>2026-04-18T08:46:08.531Z</time></trkpt><trkpt lat="43.3652455" lon="10.8239114"><ele>113.0</ele><time>2026-04-18T08:46:15.397Z</time></trkpt><trkpt lat="43.3652953" lon="10.8239874"><ele>113.0</ele><time>2026-04-18T08:46:20.439Z</time></trkpt><trkpt lat="43.3653391" lon="10.8240509"><ele>113.0</ele><time>2026-04-18T08:46:24.397Z</time></trkpt><trkpt lat="43.3653677" lon="10.8241295"><ele>113.0</ele><time>2026-04-18T08:46:28.435Z</time></trkpt><trkpt lat="43.3653875" lon="10.824218"><ele>113.0</ele><time>2026-04-18T08:46:33.256Z</time></trkpt><trkpt lat="43.3654183" lon="10.8243176"><ele>113.0</ele><time>2026-04-18T08:46:37.577Z</time></trkpt><trkpt lat="43.3654414" lon="10.8244"><ele>113.0</ele><time>2026-04-18T08:46:41.556Z</time></trkpt><trkpt lat="43.3654557" lon="10.8244995"><ele>113.0</ele><time>2026-04-18T08:46:46.581Z</time></trkpt><trkpt lat="43.3654562" lon="10.8246058"><ele>112.71428571428572</ele><time>2026-04-18T08:46:51.522Z</time></trkpt><trkpt lat="43.3654598" lon="10.824701"><ele>112.42857142857142</ele><time>2026-04-18T08:46:56.539Z</time></trkpt><trkpt lat="43.3654484" lon="10.8247896"><ele>112.14285714285714</ele><time>2026-04-18T08:47:00.298Z</time></trkpt><trkpt lat="43.3654362" lon="10.8248747"><ele>111.85714285714286</ele><time>2026-04-18T08:47:04.534Z</time></trkpt><trkpt lat="43.3654092" lon="10.8249672"><ele>111.57142857142858</ele><time>2026-04-18T08:47:10.517Z</time></trkpt><trkpt lat="43.3654155" lon="10.8250709"><ele>111.28571428571428</ele><time>2026-04-18T08:47:16.579Z</time></trkpt><trkpt lat="43.3653991" lon="10.8251627"><ele>111.0</ele><time>2026-04-18T08:47:20.509Z</time></trkpt><trkpt lat="43.3653756" lon="10.8252522"><ele>110.85714285714285</ele><time>2026-04-18T08:47:24.572Z</time></trkpt><trkpt lat="43.3653346" lon="10.825324"><ele>110.71428571428572</ele><time>2026-04-18T08:47:29.524Z</time></trkpt><trkpt lat="43.3652988" lon="10.8254108"><ele>110.57142857142857</ele><time>2026-04-18T08:47:34.535Z</time></trkpt><trkpt lat="43.3652587" lon="10.8254837"><ele>110.42857142857142</ele><time>2026-04-18T08:47:38.279Z</time></trkpt><trkpt lat="43.3652141" lon="10.8255584"><ele>110.28571428571428</ele><time>2026-04-18T08:47:42.58Z</time></trkpt><trkpt lat="43.3651833" lon="10.8256534"><ele>110.14285714285714</ele><time>2026-04-18T08:47:47.521Z</time></trkpt><trkpt lat="43.3651671" lon="10.8257595"><ele>110.0</ele><time>2026-04-18T08:47:52.571Z</time></trkpt><trkpt lat="43.3651578" lon="10.8258471"><ele>109.99999999999999</ele><time>2026-04-18T08:47:56.482Z</time></trkpt><trkpt lat="43.3651747" lon="10.825953"><ele>110.0</ele><time>2026-04-18T08:48:01.336Z</time></trkpt><trkpt lat="43.3652128" lon="10.8260269"><ele>110.0</ele><time>2026-04-18T08:48:05.528Z</time></trkpt><trkpt lat="43.3652661" lon="10.8260794"><ele>110.0</ele><time>2026-04-18T08:48:09.591Z</time></trkpt><trkpt lat="43.3653297" lon="10.8261275"><ele>110.0</ele><time>2026-04-18T08:48:14.532Z</time></trkpt><trkpt lat="43.3653808" lon="10.826183"><ele>109.99999999999999</ele><time>2026-04-18T08:48:19.527Z</time></trkpt><trkpt lat="43.365417" lon="10.8262662"><ele>110.0</ele><time>2026-04-18T08:48:24.117Z</time></trkpt><trkpt lat="43.3654521" lon="10.826367"><ele>110.28571428571428</ele><time>2026-04-18T08:48:29.526Z</time></trkpt><trkpt lat="43.3654571" lon="10.8264538"><ele>110.57142857142857</ele><time>2026-04-18T08:48:33.528Z</time></trkpt><trkpt lat="43.3654508" lon="10.8265606"><ele>110.85714285714286</ele><time>2026-04-18T08:48:38.579Z</time></trkpt><trkpt lat="43.3654486" lon="10.8266534"><ele>111.14285714285714</ele><time>2026-04-18T08:48:42.532Z</time></trkpt><trkpt lat="43.3654565" lon="10.826745"><ele>111.42857142857143</ele><time>2026-04-18T08:48:47.439Z</time></trkpt><trkpt lat="43.3655123" lon="10.8267971"><ele>111.71428571428571</ele><time>2026-04-18T08:48:52.524Z</time></trkpt><trkpt lat="43.3655774" lon="10.8268135"><ele>112.0</ele><time>2026-04-18T08:48:56.586Z</time></trkpt><trkpt lat="43.3656468" lon="10.8267761"><ele>112.0</ele><time>2026-04-18T08:49:01.528Z</time></trkpt><trkpt lat="43.3656774" lon="10.8266873"><ele>112.0</ele><time>2026-04-18T08:49:06.579Z</time></trkpt><trkpt lat="43.3656683" lon="10.8266013"><ele>112.0</ele><time>2026-04-18T08:49:12.499Z</time></trkpt><trkpt lat="43.3656529" lon="10.8265123"><ele>112.0</ele><time>2026-04-18T08:49:17.476Z</time></trkpt><trkpt lat="43.3656112" lon="10.8264234"><ele>112.0</ele><time>2026-04-18T08:49:22.534Z</time></trkpt><trkpt lat="43.365581" lon="10.826346"><ele>112.0</ele><time>2026-04-18T08:49:26.44Z</time></trkpt><trkpt lat="43.3655423" lon="10.8262734"><ele>112.0</ele><time>2026-04-18T08:49:30.575Z</time></trkpt><trkpt lat="43.3654956" lon="10.8261921"><ele>112.0</ele><time>2026-04-18T08:49:35.566Z</time></trkpt><trkpt lat="43.3654619" lon="10.8260952"><ele>112.0</ele><time>2026-04-18T08:49:40.539Z</time></trkpt><trkpt lat="43.3654285" lon="10.8260096"><ele>112.0</ele><time>2026-04-18T08:49:44.497Z</time></trkpt><trkpt lat="43.3653927" lon="10.8259286"><ele>112.0</ele><time>2026-04-18T08:49:48.523Z</time></trkpt><trkpt lat="43.365361" lon="10.8258482"><ele>112.0</ele><time>2026-04-18T08:49:54.439Z</time></trkpt><trkpt lat="43.3653746" lon="10.8257363"><ele>112.0</ele><time>2026-04-18T08:49:59.495Z</time></trkpt><trkpt lat="43.3654121" lon="10.8256583"><ele>112.0</ele><time>2026-04-18T08:50:03.398Z</time></trkpt><trkpt lat="43.3654582" lon="10.8255981"><ele>111.71428571428571</ele><time>2026-04-18T08:50:08.507Z</time></trkpt><trkpt lat="43.3655212" lon="10.8255783"><ele>111.42857142857143</ele><time>2026-04-18T08:50:17.577Z</time></trkpt><trkpt lat="43.3655799" lon="10.8255341"><ele>111.14285714285714</ele><time>2026-04-18T08:50:22.562Z</time></trkpt><trkpt lat="43.3656394" lon="10.825488"><ele>110.85714285714286</ele><time>2026-04-18T08:50:27.554Z</time></trkpt><trkpt lat="43.3657085" lon="10.8254504"><ele>110.57142857142857</ele><time>2026-04-18T08:50:32.555Z</time></trkpt><trkpt lat="43.365752" lon="10.8255205"><ele>110.28571428571428</ele><time>2026-04-18T08:50:41.559Z</time></trkpt><trkpt lat="43.3657184" lon="10.8256054"><ele>110.0</ele><time>2026-04-18T08:50:47.49Z</time></trkpt><trkpt lat="43.3656663" lon="10.8256611"><ele>110.28571428571428</ele><time>2026-04-18T08:50:52.539Z</time></trkpt><trkpt lat="43.3656221" lon="10.825747"><ele>110.57142857142857</ele><time>2026-04-18T08:50:57.49Z</time></trkpt><trkpt lat="43.3655815" lon="10.8258153"><ele>110.85714285714286</ele><time>2026-04-18T08:51:01.543Z</time></trkpt><trkpt lat="43.3655321" lon="10.8258924"><ele>111.14285714285714</ele><time>2026-04-18T08:51:06.736Z</time></trkpt><trkpt lat="43.3655219" lon="10.8259807"><ele>111.42857142857143</ele><time>2026-04-18T08:51:11.496Z</time></trkpt><trkpt lat="43.3655428" lon="10.8260692"><ele>111.71428571428571</ele><time>2026-04-18T08:51:15.49Z</time></trkpt><trkpt lat="43.3655747" lon="10.8261463"><ele>112.0</ele><time>2026-04-18T08:51:19.538Z</time></trkpt><trkpt lat="43.3656287" lon="10.8262199"><ele>113.28571428571428</ele><time>2026-04-18T08:51:25.537Z</time></trkpt><trkpt lat="43.3656647" lon="10.8263023"><ele>114.57142857142857</ele><time>2026-04-18T08:51:30.531Z</time></trkpt><trkpt lat="43.3657296" lon="10.826321"><ele>115.85714285714286</ele><time>2026-04-18T08:51:37.54Z</time></trkpt><trkpt lat="43.365802" lon="10.8263549"><ele>117.14285714285714</ele><time>2026-04-18T08:51:44.586Z</time></trkpt><trkpt lat="43.3658624" lon="10.8263888"><ele>118.42857142857142</ele><time>2026-04-18T08:51:50.516Z</time></trkpt><trkpt lat="43.3659204" lon="10.8264242"><ele>119.71428571428571</ele><time>2026-04-18T08:51:57.543Z</time></trkpt><trkpt lat="43.3659787" lon="10.8264884"><ele>121.0</ele><time>2026-04-18T08:52:05.559Z</time></trkpt><trkpt lat="43.3660362" lon="10.8265266"><ele>121.0</ele><time>2026-04-18T08:52:11.49Z</time></trkpt><trkpt lat="43.3660811" lon="10.8266013"><ele>120.99999999999999</ele><time>2026-04-18T08:52:19.504Z</time></trkpt><trkpt lat="43.3660915" lon="10.8266952"><ele>121.0</ele><time>2026-04-18T08:52:24.522Z</time></trkpt><trkpt lat="43.3660416" lon="10.8267544"><ele>121.0</ele><time>2026-04-18T08:52:29.496Z</time></trkpt><trkpt lat="43.3659845" lon="10.8267157"><ele>120.99999999999999</ele><time>2026-04-18T08:52:34.558Z</time></trkpt><trkpt lat="43.3659173" lon="10.8267121"><ele>121.0</ele><time>2026-04-18T08:52:45.479Z</time></trkpt><trkpt lat="43.3658198" lon="10.8267624"><ele>121.0</ele><time>2026-04-18T08:55:25.479Z</time></trkpt><trkpt lat="43.3657664" lon="10.8268279"><ele>120.57142857142857</ele><time>2026-04-18T08:55:29.577Z</time></trkpt><trkpt lat="43.3657503" lon="10.8269195"><ele>120.14285714285714</ele><time>2026-04-18T08:55:35.457Z</time></trkpt><trkpt lat="43.3657541" lon="10.827011"><ele>119.71428571428571</ele><time>2026-04-18T08:55:41.544Z</time></trkpt><trkpt lat="43.3657666" lon="10.8270984"><ele>119.28571428571428</ele><time>2026-04-18T08:55:49.559Z</time></trkpt><trkpt lat="43.3658314" lon="10.8271415"><ele>118.85714285714286</ele><time>2026-04-18T08:55:56.587Z</time></trkpt><trkpt lat="43.3658969" lon="10.8271616"><ele>118.42857142857142</ele><time>2026-04-18T08:56:03.505Z</time></trkpt><trkpt lat="43.3659562" lon="10.8271062"><ele>118.0</ele><time>2026-04-18T08:56:11.521Z</time></trkpt><trkpt lat="43.3659909" lon="10.827025"><ele>118.0</ele><time>2026-04-18T08:56:18.548Z</time></trkpt><trkpt lat="43.3660309" lon="10.8269474"><ele>118.0</ele><time>2026-04-18T08:56:23.489Z</time></trkpt><trkpt lat="43.3660958" lon="10.826936"><ele>118.0</ele><time>2026-04-18T08:56:29.528Z</time></trkpt><trkpt lat="43.3661536" lon="10.8269958"><ele>118.0</ele><time>2026-04-18T08:56:36.556Z</time></trkpt><trkpt lat="43.3661909" lon="10.8270714"><ele>118.0</ele><time>2026-04-18T08:56:41.498Z</time></trkpt><trkpt lat="43.3662139" lon="10.8271616"><ele>118.0</ele><time>2026-04-18T08:56:46.549Z</time></trkpt><trkpt lat="43.3662239" lon="10.8272594"><ele>118.0</ele><time>2026-04-18T08:57:06.523Z</time></trkpt><trkpt lat="43.366222" lon="10.8273527"><ele>118.0</ele><time>2026-04-18T08:57:11.217Z</time></trkpt><trkpt lat="43.3662327" lon="10.8274381"><ele>118.0</ele><time>2026-04-18T08:57:30.581Z</time></trkpt><trkpt lat="43.366175" lon="10.8274992"><ele>118.0</ele><time>2026-04-18T08:58:18.565Z</time></trkpt><trkpt lat="43.366104" lon="10.8275859"><ele>118.0</ele><time>2026-04-18T08:59:02.49Z</time></trkpt><trkpt lat="43.3660375" lon="10.8275781"><ele>118.0</ele><time>2026-04-18T08:59:08.529Z</time></trkpt><trkpt lat="43.3659737" lon="10.8275263"><ele>118.0</ele><time>2026-04-18T08:59:15.556Z</time></trkpt><trkpt lat="43.3659303" lon="10.8274602"><ele>118.0</ele><time>2026-04-18T08:59:20.496Z</time></trkpt><trkpt lat="43.3658815" lon="10.8274023"><ele>118.0</ele><time>2026-04-18T08:59:27.523Z</time></trkpt><trkpt lat="43.3658192" lon="10.8274305"><ele>118.0</ele><time>2026-04-18T08:59:34.531Z</time></trkpt><trkpt lat="43.3658105" lon="10.8275277"><ele>118.0</ele><time>2026-04-18T08:59:41.436Z</time></trkpt><trkpt lat="43.3658277" lon="10.8276259"><ele>118.0</ele><time>2026-04-18T08:59:47.508Z</time></trkpt><trkpt lat="43.365871" lon="10.8276913"><ele>118.0</ele><time>2026-04-18T08:59:51.577Z</time></trkpt><trkpt lat="43.365923" lon="10.8277601"><ele>118.0</ele><time>2026-04-18T08:59:56.539Z</time></trkpt><trkpt lat="43.3659759" lon="10.8278099"><ele>118.0</ele><time>2026-04-18T09:00:01.534Z</time></trkpt><trkpt lat="43.3660287" lon="10.827859"><ele>118.14285714285714</ele><time>2026-04-18T09:00:06.535Z</time></trkpt><trkpt lat="43.3660919" lon="10.8278777"><ele>118.28571428571429</ele><time>2026-04-18T09:00:11.555Z</time></trkpt><trkpt lat="43.3661597" lon="10.8278979"><ele>118.42857142857143</ele><time>2026-04-18T09:00:21.548Z</time></trkpt><trkpt lat="43.3662223" lon="10.8279298"><ele>118.57142857142857</ele><time>2026-04-18T09:00:26.49Z</time></trkpt><trkpt lat="43.3662946" lon="10.8279634"><ele>118.71428571428572</ele><time>2026-04-18T09:00:50.557Z</time></trkpt><trkpt lat="43.3663042" lon="10.8280515"><ele>118.85714285714286</ele><time>2026-04-18T09:01:42.49Z</time></trkpt><trkpt lat="43.3663514" lon="10.8281094"><ele>119.0</ele><time>2026-04-18T09:02:09.556Z</time></trkpt><trkpt lat="43.366408" lon="10.828223"><ele>119.71428571428572</ele><time>2026-04-18T09:02:24.533Z</time></trkpt><trkpt lat="43.366467" lon="10.8282768"><ele>120.42857142857143</ele><time>2026-04-18T09:02:32.549Z</time></trkpt><trkpt lat="43.3665283" lon="10.8282495"><ele>121.14285714285714</ele><time>2026-04-18T09:02:42.527Z</time></trkpt><trkpt lat="43.3665354" lon="10.8281578"><ele>121.85714285714286</ele><time>2026-04-18T09:02:52.534Z</time></trkpt><trkpt lat="43.3665454" lon="10.8280716"><ele>122.57142857142858</ele><time>2026-04-18T09:03:06.49Z</time></trkpt><trkpt lat="43.3665114" lon="10.82797"><ele>123.28571428571429</ele><time>2026-04-18T09:03:13.507Z</time></trkpt><trkpt lat="43.3664633" lon="10.8279105"><ele>124.0</ele><time>2026-04-18T09:03:18.594Z</time></trkpt><trkpt lat="43.3663963" lon="10.8278818"><ele>123.28571428571429</ele><time>2026-04-18T09:03:25.586Z</time></trkpt><trkpt lat="43.3663295" lon="10.8278364"><ele>122.57142857142858</ele><time>2026-04-18T09:03:44.581Z</time></trkpt><trkpt lat="43.3662792" lon="10.8277815"><ele>121.85714285714286</ele><time>2026-04-18T09:04:12.599Z</time></trkpt><trkpt lat="43.3662602" lon="10.8276791"><ele>121.14285714285714</ele><time>2026-04-18T09:04:17.524Z</time></trkpt><trkpt lat="43.3662456" lon="10.8275897"><ele>120.42857142857143</ele><time>2026-04-18T09:04:22.599Z</time></trkpt><trkpt lat="43.3662624" lon="10.8275041"><ele>119.71428571428572</ele><time>2026-04-18T09:04:29.492Z</time></trkpt><trkpt lat="43.3662999" lon="10.8274179"><ele>119.0</ele><time>2026-04-18T09:04:37.508Z</time></trkpt><trkpt lat="43.3663423" lon="10.8273528"><ele>118.85714285714286</ele><time>2026-04-18T09:04:43.547Z</time></trkpt><trkpt lat="43.3663374" lon="10.8272608"><ele>118.71428571428572</ele><time>2026-04-18T09:04:50.575Z</time></trkpt><trkpt lat="43.3663164" lon="10.8271776"><ele>118.57142857142857</ele><time>2026-04-18T09:04:57.493Z</time></trkpt><trkpt lat="43.3663047" lon="10.8270836"><ele>118.42857142857143</ele><time>2026-04-18T09:05:03.532Z</time></trkpt><trkpt lat="43.3663559" lon="10.8270293"><ele>118.28571428571429</ele><time>2026-04-18T09:05:11.547Z</time></trkpt><trkpt lat="43.3663974" lon="10.8270951"><ele>118.14285714285714</ele><time>2026-04-18T09:05:19.564Z</time></trkpt><trkpt lat="43.3664427" lon="10.8271729"><ele>118.0</ele><time>2026-04-18T09:05:26.488Z</time></trkpt><trkpt lat="43.3664611" lon="10.8272641"><ele>118.85714285714286</ele><time>2026-04-18T09:05:31.533Z</time></trkpt><trkpt lat="43.3664635" lon="10.8273526"><ele>119.71428571428572</ele><time>2026-04-18T09:05:36.583Z</time></trkpt><trkpt lat="43.3664705" lon="10.8274458"><ele>120.57142857142858</ele><time>2026-04-18T09:05:44.49Z</time></trkpt><trkpt lat="43.3664776" lon="10.8275512"><ele>121.42857142857143</ele><time>2026-04-18T09:05:50.529Z</time></trkpt><trkpt lat="43.3664831" lon="10.8276618"><ele>122.2857142857143</ele><time>2026-04-18T09:05:55.796Z</time></trkpt><trkpt lat="43.3665039" lon="10.8277558"><ele>123.14285714285715</ele><time>2026-04-18T09:06:02.539Z</time></trkpt><trkpt lat="43.366561" lon="10.8277981"><ele>124.0</ele><time>2026-04-18T09:06:09.525Z</time></trkpt><trkpt lat="43.3666255" lon="10.8278241"><ele>124.0</ele><time>2026-04-18T09:06:27.533Z</time></trkpt><trkpt lat="43.3666736" lon="10.8277456"><ele>124.00000000000001</ele><time>2026-04-18T09:06:47.517Z</time></trkpt><trkpt lat="43.3667101" lon="10.8276632"><ele>124.0</ele><time>2026-04-18T09:06:51.557Z</time></trkpt><trkpt lat="43.3667572" lon="10.827586"><ele>124.0</ele><time>2026-04-18T09:06:57.509Z</time></trkpt><trkpt lat="43.3667799" lon="10.8275035"><ele>124.00000000000001</ele><time>2026-04-18T09:07:04.539Z</time></trkpt><trkpt lat="43.3668083" lon="10.8274167"><ele>124.0</ele><time>2026-04-18T09:07:14.529Z</time></trkpt><trkpt lat="43.3668372" lon="10.8272924"><ele>124.0</ele><time>2026-04-18T09:14:00.488Z</time></trkpt><trkpt lat="43.3668228" lon="10.827205"><ele>124.0</ele><time>2026-04-18T09:14:05.537Z</time></trkpt><trkpt lat="43.3667952" lon="10.8271226"><ele>124.00000000000001</ele><time>2026-04-18T09:14:11.565Z</time></trkpt><trkpt lat="43.366746" lon="10.827067"><ele>124.0</ele><time>2026-04-18T09:14:18.489Z</time></trkpt><trkpt lat="43.3666837" lon="10.827041"><ele>124.0</ele><time>2026-04-18T09:14:25.51Z</time></trkpt><trkpt lat="43.3666178" lon="10.8270431"><ele>124.00000000000001</ele><time>2026-04-18T09:14:33.526Z</time></trkpt><trkpt lat="43.3665543" lon="10.8270584"><ele>124.0</ele><time>2026-04-18T09:14:40.554Z</time></trkpt><trkpt lat="43.3664977" lon="10.8270112"><ele>124.0</ele><time>2026-04-18T09:14:49.448Z</time></trkpt><trkpt lat="43.3664538" lon="10.8269481"><ele>124.0</ele><time>2026-04-18T09:14:54.499Z</time></trkpt><trkpt lat="43.3664301" lon="10.8268632"><ele>124.00000000000001</ele><time>2026-04-18T09:15:01.527Z</time></trkpt><trkpt lat="43.366391" lon="10.8267909"><ele>124.0</ele><time>2026-04-18T09:15:09.24Z</time></trkpt><trkpt lat="43.3663772" lon="10.8266966"><ele>124.0</ele><time>2026-04-18T09:15:17.558Z</time></trkpt><trkpt lat="43.3663598" lon="10.8266052"><ele>124.00000000000001</ele><time>2026-04-18T09:15:25.574Z</time></trkpt><trkpt lat="43.3663575" lon="10.8265169"><ele>124.0</ele><time>2026-04-18T09:15:31.503Z</time></trkpt><trkpt lat="43.366348" lon="10.826431"><ele>124.0</ele><time>2026-04-18T09:15:38.531Z</time></trkpt><trkpt lat="43.3663304" lon="10.8263403"><ele>124.28571428571429</ele><time>2026-04-18T09:15:45.557Z</time></trkpt><trkpt lat="43.3663153" lon="10.8262498"><ele>124.57142857142858</ele><time>2026-04-18T09:15:51.6Z</time></trkpt><trkpt lat="43.3662778" lon="10.8261775"><ele>124.85714285714286</ele><time>2026-04-18T09:15:59.596Z</time></trkpt><trkpt lat="43.3662387" lon="10.8260976"><ele>125.14285714285714</ele><time>2026-04-18T09:16:07.057Z</time></trkpt><trkpt lat="43.3661913" lon="10.8260203"><ele>125.42857142857143</ele><time>2026-04-18T09:16:14.546Z</time></trkpt><trkpt lat="43.3661548" lon="10.8259413"><ele>125.71428571428572</ele><time>2026-04-18T09:16:21.574Z</time></trkpt><trkpt lat="43.3661156" lon="10.8258642"><ele>126.0</ele><time>2026-04-18T09:16:27.575Z</time></trkpt><trkpt lat="43.36607" lon="10.8257917"><ele>126.0</ele><time>2026-04-18T09:16:33.541Z</time></trkpt><trkpt lat="43.3660356" lon="10.8257129"><ele>126.0</ele><time>2026-04-18T09:16:40.57Z</time></trkpt><trkpt lat="43.3660096" lon="10.8256273"><ele>126.0</ele><time>2026-04-18T09:16:46.499Z</time></trkpt><trkpt lat="43.3659428" lon="10.8256155"><ele>126.0</ele><time>2026-04-18T09:16:55.503Z</time></trkpt><trkpt lat="43.3659217" lon="10.8257115"><ele>126.0</ele><time>2026-04-18T09:17:04.439Z</time></trkpt><trkpt lat="43.3658719" lon="10.8256484"><ele>126.0</ele><time>2026-04-18T09:17:19.549Z</time></trkpt><trkpt lat="43.3658752" lon="10.8255486"><ele>126.0</ele><time>2026-04-18T09:17:28.554Z</time></trkpt><trkpt lat="43.3658938" lon="10.8254639"><ele>126.0</ele><time>2026-04-18T09:17:35.581Z</time></trkpt><trkpt lat="43.3659233" lon="10.8253774"><ele>126.0</ele><time>2026-04-18T09:17:43.399Z</time></trkpt><trkpt lat="43.365922" lon="10.8252866"><ele>126.0</ele><time>2026-04-18T09:17:50.536Z</time></trkpt><trkpt lat="43.3658851" lon="10.8252017"><ele>126.0</ele><time>2026-04-18T09:18:02.489Z</time></trkpt><trkpt lat="43.365856" lon="10.8251184"><ele>126.0</ele><time>2026-04-18T09:18:07.496Z</time></trkpt><trkpt lat="43.3658406" lon="10.825023"><ele>126.0</ele><time>2026-04-18T09:18:13.534Z</time></trkpt><trkpt lat="43.3658219" lon="10.8249375"><ele>126.0</ele><time>2026-04-18T09:18:20.489Z</time></trkpt><trkpt lat="43.3657906" lon="10.8248542"><ele>126.14285714285714</ele><time>2026-04-18T09:18:26.53Z</time></trkpt><trkpt lat="43.3657791" lon="10.8247662"><ele>126.28571428571428</ele><time>2026-04-18T09:18:45.524Z</time></trkpt><trkpt lat="43.3657417" lon="10.8246653"><ele>126.42857142857143</ele><time>2026-04-18T09:19:15.501Z</time></trkpt><trkpt lat="43.3657167" lon="10.8245737"><ele>126.57142857142857</ele><time>2026-04-18T09:19:19.564Z</time></trkpt><trkpt lat="43.365702" lon="10.8244878"><ele>126.71428571428571</ele><time>2026-04-18T09:19:26.418Z</time></trkpt><trkpt lat="43.3656658" lon="10.8245736"><ele>126.85714285714286</ele><time>2026-04-18T09:19:37.571Z</time></trkpt><trkpt lat="43.3656797" lon="10.8246631"><ele>127.0</ele><time>2026-04-18T09:19:43.501Z</time></trkpt><trkpt lat="43.3656985" lon="10.8247556"><ele>127.0</ele><time>2026-04-18T09:19:50.528Z</time></trkpt><trkpt lat="43.3657307" lon="10.8248339"><ele>127.0</ele><time>2026-04-18T09:19:56.533Z</time></trkpt><trkpt lat="43.3657685" lon="10.8249073"><ele>127.0</ele><time>2026-04-18T09:20:01.508Z</time></trkpt><trkpt lat="43.3657897" lon="10.824989"><ele>127.0</ele><time>2026-04-18T09:20:07.547Z</time></trkpt><trkpt lat="43.3657957" lon="10.8250777"><ele>127.0</ele><time>2026-04-18T09:20:13.586Z</time></trkpt><trkpt lat="43.3657918" lon="10.8251724"><ele>127.0</ele><time>2026-04-18T09:20:19.537Z</time></trkpt><trkpt lat="43.3657612" lon="10.8252522"><ele>127.0</ele><time>2026-04-18T09:20:25.555Z</time></trkpt><trkpt lat="43.3657255" lon="10.8253354"><ele>127.0</ele><time>2026-04-18T09:20:31.456Z</time></trkpt><trkpt lat="43.3656677" lon="10.8253846"><ele>127.0</ele><time>2026-04-18T09:20:36.535Z</time></trkpt><trkpt lat="43.3656124" lon="10.825433"><ele>127.0</ele><time>2026-04-18T09:20:44.55Z</time></trkpt><trkpt lat="43.3655542" lon="10.8253932"><ele>127.0</ele><time>2026-04-18T09:20:55.531Z</time></trkpt><trkpt lat="43.3654961" lon="10.8253505"><ele>127.0</ele><time>2026-04-18T09:21:19.489Z</time></trkpt><trkpt lat="43.3655022" lon="10.8252552"><ele>127.0</ele><time>2026-04-18T09:21:26.495Z</time></trkpt><trkpt lat="43.3655343" lon="10.8251725"><ele>127.0</ele><time>2026-04-18T09:21:31.457Z</time></trkpt><trkpt lat="43.3655489" lon="10.8250825"><ele>127.0</ele><time>2026-04-18T09:21:36.599Z</time></trkpt><trkpt lat="43.3655577" lon="10.8249916"><ele>127.0</ele><time>2026-04-18T09:21:44.502Z</time></trkpt><trkpt lat="43.3655611" lon="10.8248997"><ele>127.0</ele><time>2026-04-18T09:21:51.53Z</time></trkpt><trkpt lat="43.3655547" lon="10.8247981"><ele>127.0</ele><time>2026-04-18T09:21:56.58Z</time></trkpt><trkpt lat="43.3655483" lon="10.8247041"><ele>127.0</ele><time>2026-04-18T09:22:01.521Z</time></trkpt><trkpt lat="43.3655464" lon="10.8246119"><ele>127.0</ele><time>2026-04-18T09:22:07.561Z</time></trkpt><trkpt lat="43.3655692" lon="10.8245196"><ele>127.0</ele><time>2026-04-18T09:22:13.49Z</time></trkpt><trkpt lat="43.3655588" lon="10.8244268"><ele>127.0</ele><time>2026-04-18T09:22:21.505Z</time></trkpt><trkpt lat="43.3655402" lon="10.8243402"><ele>127.0</ele><time>2026-04-18T09:22:27.482Z</time></trkpt><trkpt lat="43.3655554" lon="10.824242"><ele>127.0</ele><time>2026-04-18T09:22:32.489Z</time></trkpt><trkpt lat="43.3655379" lon="10.8241557"><ele>127.0</ele><time>2026-04-18T09:22:39.512Z</time></trkpt><trkpt lat="43.3655015" lon="10.8240744"><ele>127.0</ele><time>2026-04-18T09:22:47.528Z</time></trkpt><trkpt lat="43.3654539" lon="10.824011"><ele>127.0</ele><time>2026-04-18T09:22:54.555Z</time></trkpt><trkpt lat="43.3653988" lon="10.8239337"><ele>127.0</ele><time>2026-04-18T09:22:59.496Z</time></trkpt><trkpt lat="43.3653415" lon="10.8238757"><ele>125.85714285714286</ele><time>2026-04-18T09:23:05.535Z</time></trkpt><trkpt lat="43.365312" lon="10.8237978"><ele>124.71428571428571</ele><time>2026-04-18T09:23:11.574Z</time></trkpt><trkpt lat="43.3652689" lon="10.8237156"><ele>123.57142857142857</ele><time>2026-04-18T09:23:16.515Z</time></trkpt><trkpt lat="43.3652296" lon="10.8236338"><ele>122.42857142857143</ele><time>2026-04-18T09:23:23.543Z</time></trkpt><trkpt lat="43.3651944" lon="10.8235576"><ele>121.28571428571428</ele><time>2026-04-18T09:23:30.57Z</time></trkpt><trkpt lat="43.3651659" lon="10.8234795"><ele>120.14285714285714</ele><time>2026-04-18T09:23:35.511Z</time></trkpt><trkpt lat="43.365136" lon="10.8233982"><ele>119.0</ele><time>2026-04-18T09:23:41.55Z</time></trkpt><trkpt lat="43.365121" lon="10.8233097"><ele>119.0</ele><time>2026-04-18T09:23:52.53Z</time></trkpt><trkpt lat="43.365082" lon="10.8232282"><ele>119.0</ele><time>2026-04-18T09:23:58.569Z</time></trkpt><trkpt lat="43.3650593" lon="10.8231362"><ele>119.0</ele><time>2026-04-18T09:24:04.498Z</time></trkpt><trkpt lat="43.3650317" lon="10.823054"><ele>119.0</ele><time>2026-04-18T09:24:09.575Z</time></trkpt><trkpt lat="43.3650029" lon="10.8229649"><ele>119.0</ele><time>2026-04-18T09:24:13.478Z</time></trkpt><trkpt lat="43.3649826" lon="10.8228751"><ele>119.0</ele><time>2026-04-18T09:24:18.553Z</time></trkpt><trkpt lat="43.3649533" lon="10.822782"><ele>119.0</ele><time>2026-04-18T09:24:25.799Z</time></trkpt><trkpt lat="43.36492" lon="10.8226985"><ele>119.0</ele><time>2026-04-18T09:24:31.528Z</time></trkpt><trkpt lat="43.3648644" lon="10.8226367"><ele>119.0</ele><time>2026-04-18T09:24:39.598Z</time></trkpt><trkpt lat="43.3648026" lon="10.8225849"><ele>119.0</ele><time>2026-04-18T09:24:45.563Z</time></trkpt><trkpt lat="43.3647409" lon="10.8226097"><ele>119.0</ele><time>2026-04-18T09:24:51.399Z</time></trkpt><trkpt lat="43.3646994" lon="10.8226941"><ele>119.0</ele><time>2026-04-18T09:24:59.508Z</time></trkpt><trkpt lat="43.3646385" lon="10.822749"><ele>119.0</ele><time>2026-04-18T09:25:05.547Z</time></trkpt><trkpt lat="43.3645666" lon="10.822777"><ele>119.0</ele><time>2026-04-18T09:25:11.586Z</time></trkpt><trkpt lat="43.3644965" lon="10.8227683"><ele>118.49999999999999</ele><time>2026-04-18T09:25:18.503Z</time></trkpt><trkpt lat="43.3644796" lon="10.8226745"><ele>118.0</ele><time>2026-04-18T09:25:24.534Z</time></trkpt><trkpt lat="43.3645028" lon="10.8225739"><ele>117.5</ele><time>2026-04-18T09:25:30.581Z</time></trkpt><trkpt lat="43.3645271" lon="10.8224734"><ele>117.0</ele><time>2026-04-18T09:25:39.584Z</time></trkpt><trkpt lat="43.3645867" lon="10.8223666"><ele>116.49999999999999</ele><time>2026-04-18T09:25:59.599Z</time></trkpt><trkpt lat="43.3645795" lon="10.822271"><ele>116.0</ele><time>2026-04-18T09:26:07.582Z</time></trkpt><trkpt lat="43.3645106" lon="10.8222293"><ele>116.0</ele><time>2026-04-18T09:26:14.557Z</time></trkpt><trkpt lat="43.3644688" lon="10.8221563"><ele>116.0</ele><time>2026-04-18T09:26:22.515Z</time></trkpt><trkpt lat="43.3644231" lon="10.8220967"><ele>116.0</ele><time>2026-04-18T09:26:28.555Z</time></trkpt><trkpt lat="43.3643646" lon="10.8220478"><ele>116.0</ele><time>2026-04-18T09:26:33.496Z</time></trkpt><trkpt lat="43.3642933" lon="10.8220125"><ele>116.0</ele><time>2026-04-18T09:26:39.576Z</time></trkpt><trkpt lat="43.3642239" lon="10.8219985"><ele>116.0</ele><time>2026-04-18T09:26:44.488Z</time></trkpt><trkpt lat="43.3641585" lon="10.8219478"><ele>116.0</ele><time>2026-04-18T09:26:49.526Z</time></trkpt></trkseg></trk></gpx>